PWSweather.com
Personal Weather Stations
Station Observations
WXGLH1124
Southern Oaks, Indianapolis, IN 46217

Southern OaksIndianapolis, IN 46217

Lat: 39.65113, Lon: -86.16866

Elevation: 720

Station Type: Vantage Pro2

High Low Average
Temperature 25.9°F-3.4°C 16.6°F-8.6°C 20.1°F-6.6°C
Dew Point 20.8°F-6.2°C 9.7°F-12.4°C 12.0°F-11.1°C
Winds 17.0 mph 27.4 kmh Calm Calm 5.0 mph W8.0 kmh W
Wind Gusts 22.0 mph35.4 kmh 2.0 mph3.2 kmh 10.0 mph16.1 kmh
Humidity 81% 61% 71%
Pressure 30.83 in1044.0 mb 30.13 in1020.3 mb -
Precipitation 0.00 in0.0 mm - -
Hour Temp Dew Point Humidity Winds Wind Gusts Pressure Precip Precip Rate Daily Precip Total
12:00 AM 28.2°F-2.1°C 22.8°F-5.1°C 80% 9.0 mph WSW14.5 kmh WSW 18.0 mph29.0 kmh 30.10 in1019.3 mb 0.01 in0.3 mm 0.00 in0.0 mm 0.01 in0.3 mm
12:05 AM 27.6°F-2.4°C 22.0°F-5.6°C 79% 7.0 mph SW11.3 kmh SW 14.0 mph22.5 kmh 30.10 in1019.3 mb 0.01 in0.3 mm 0.00 in0.0 mm 0.01 in0.3 mm
12:10 AM 27.2°F-2.7°C 21.6°F-5.8°C 79% 6.0 mph SW9.7 kmh SW 16.0 mph25.7 kmh 30.11 in1019.6 mb 0.01 in0.3 mm 0.00 in0.0 mm 0.01 in0.3 mm
12:15 AM 27.0°F-2.8°C 21.4°F-5.9°C 79% 8.0 mph WNW12.9 kmh WNW 12.0 mph19.3 kmh 30.11 in1019.6 mb 0.01 in0.3 mm 0.00 in0.0 mm 0.01 in0.3 mm
12:20 AM 26.8°F-2.9°C 21.2°F-6.0°C 79% 10.0 mph NW16.1 kmh NW 13.0 mph20.9 kmh 30.10 in1019.3 mb 0.00 in0.0 mm 0.00 in0.0 mm 0.01 in0.3 mm
12:25 AM 26.7°F-2.9°C 21.1°F-6.1°C 79% 11.0 mph SW17.7 kmh SW 13.0 mph20.9 kmh 30.10 in1019.3 mb 0.00 in0.0 mm 0.00 in0.0 mm 0.01 in0.3 mm
12:30 AM 26.6°F-3.0°C 21.0°F-6.1°C 79% 3.0 mph W4.8 kmh W 10.0 mph16.1 kmh 30.10 in1019.3 mb 0.00 in0.0 mm 0.00 in0.0 mm 0.01 in0.3 mm
12:35 AM 26.7°F-2.9°C 21.4°F-5.9°C 80% 10.0 mph WSW16.1 kmh WSW 13.0 mph20.9 kmh 30.10 in1019.3 mb 0.00 in0.0 mm 0.00 in0.0 mm 0.01 in0.3 mm
12:40 AM 26.5°F-3.1°C 20.6°F-6.3°C 78% 3.0 mph WNW4.8 kmh WNW 15.0 mph24.1 kmh 30.11 in1019.6 mb 0.00 in0.0 mm 0.00 in0.0 mm 0.01 in0.3 mm
12:45 AM 26.3°F-3.2°C 20.1°F-6.6°C 77% 8.0 mph NW12.9 kmh NW 13.0 mph20.9 kmh 30.12 in1020.0 mb 0.00 in0.0 mm 0.00 in0.0 mm 0.01 in0.3 mm
12:50 AM 26.2°F-3.2°C 20.3°F-6.5°C 78% 5.0 mph WSW8.0 kmh WSW 11.0 mph17.7 kmh 30.12 in1020.0 mb 0.00 in0.0 mm 0.00 in0.0 mm 0.01 in0.3 mm
12:55 AM 26.1°F-3.3°C 19.9°F-6.7°C 77% 4.0 mph NW6.4 kmh NW 9.0 mph14.5 kmh 30.11 in1019.6 mb 0.00 in0.0 mm 0.00 in0.0 mm 0.01 in0.3 mm
01:00 AM 25.9°F-3.4°C 20.0°F-6.7°C 78% 10.0 mph NW16.1 kmh NW 13.0 mph20.9 kmh 30.13 in1020.3 mb 0.00 in0.0 mm 0.00 in0.0 mm 0.01 in0.3 mm
01:05 AM 25.8°F-3.4°C 19.9°F-6.7°C 78% 3.0 mph NW4.8 kmh NW 12.0 mph19.3 kmh 30.13 in1020.3 mb 0.00 in0.0 mm 0.00 in0.0 mm 0.01 in0.3 mm
01:10 AM 25.8°F-3.4°C 20.2°F-6.6°C 79% 10.0 mph WSW16.1 kmh WSW 11.0 mph17.7 kmh 30.14 in1020.7 mb 0.00 in0.0 mm 0.00 in0.0 mm 0.01 in0.3 mm
01:15 AM 25.8°F-3.4°C 20.5°F-6.4°C 80% 4.0 mph NW6.4 kmh NW 8.0 mph12.9 kmh 30.14 in1020.7 mb 0.00 in0.0 mm 0.00 in0.0 mm 0.01 in0.3 mm
01:20 AM 25.8°F-3.4°C 20.5°F-6.4°C 80% 2.0 mph NW3.2 kmh NW 10.0 mph16.1 kmh 30.13 in1020.3 mb 0.00 in0.0 mm 0.00 in0.0 mm 0.01 in0.3 mm
01:25 AM 25.8°F-3.4°C 20.8°F-6.2°C 81% 6.0 mph W9.7 kmh W 10.0 mph16.1 kmh 30.14 in1020.7 mb 0.00 in0.0 mm 0.00 in0.0 mm 0.01 in0.3 mm
01:30 AM 25.8°F-3.4°C 20.8°F-6.2°C 81% 5.0 mph WNW8.0 kmh WNW 12.0 mph19.3 kmh 30.15 in1021.0 mb 0.00 in0.0 mm 0.00 in0.0 mm 0.01 in0.3 mm
01:35 AM 25.2°F-3.8°C 19.3°F-7.1°C 78% 7.0 mph SW11.3 kmh SW 21.0 mph33.8 kmh 30.15 in1021.0 mb 0.00 in0.0 mm 0.00 in0.0 mm 0.01 in0.3 mm
01:40 AM 25.1°F-3.8°C 19.2°F-7.1°C 78% 8.0 mph WNW12.9 kmh WNW 13.0 mph20.9 kmh 30.16 in1021.3 mb 0.00 in0.0 mm 0.00 in0.0 mm 0.01 in0.3 mm
01:44 AM 24.9°F-3.9°C 18.7°F-7.4°C 77% 4.0 mph W6.4 kmh W 13.0 mph20.9 kmh 30.17 in1021.7 mb 0.00 in0.0 mm 0.00 in0.0 mm 0.01 in0.3 mm
01:50 AM 24.7°F-4.1°C 18.5°F-7.5°C 77% 10.0 mph WNW16.1 kmh WNW 14.0 mph22.5 kmh 30.17 in1021.7 mb 0.00 in0.0 mm 0.00 in0.0 mm 0.01 in0.3 mm
01:55 AM 24.6°F-4.1°C 18.4°F-7.6°C 77% 10.0 mph WSW16.1 kmh WSW 10.0 mph16.1 kmh 30.17 in1021.7 mb 0.00 in0.0 mm 0.00 in0.0 mm 0.01 in0.3 mm
02:00 AM 24.5°F-4.2°C 18.3°F-7.6°C 77% 5.0 mph NW8.0 kmh NW 13.0 mph20.9 kmh 30.17 in1021.7 mb 0.00 in0.0 mm 0.00 in0.0 mm 0.01 in0.3 mm
02:05 AM 24.4°F-4.2°C 18.2°F-7.7°C 77% 6.0 mph WSW9.7 kmh WSW 9.0 mph14.5 kmh 30.18 in1022.0 mb 0.00 in0.0 mm 0.00 in0.0 mm 0.01 in0.3 mm
02:10 AM 24.5°F-4.2°C 18.6°F-7.4°C 78% 2.0 mph W3.2 kmh W 11.0 mph17.7 kmh 30.18 in1022.0 mb 0.00 in0.0 mm 0.00 in0.0 mm 0.01 in0.3 mm
02:14 AM 24.4°F-4.2°C 18.5°F-7.5°C 78% 4.0 mph W6.4 kmh W 13.0 mph20.9 kmh 30.18 in1022.0 mb 0.00 in0.0 mm 0.00 in0.0 mm 0.01 in0.3 mm
02:20 AM 24.3°F-4.3°C 18.4°F-7.6°C 78% 3.0 mph SW4.8 kmh SW 12.0 mph19.3 kmh 30.19 in1022.4 mb 0.00 in0.0 mm 0.00 in0.0 mm 0.01 in0.3 mm
02:25 AM 24.3°F-4.3°C 18.4°F-7.6°C 78% 9.0 mph W14.5 kmh W 11.0 mph17.7 kmh 30.19 in1022.4 mb 0.00 in0.0 mm 0.00 in0.0 mm 0.01 in0.3 mm
02:30 AM 24.1°F-4.4°C 18.3°F-7.6°C 78% 8.0 mph WSW12.9 kmh WSW 19.0 mph30.6 kmh 30.20 in1022.7 mb 0.00 in0.0 mm 0.00 in0.0 mm 0.01 in0.3 mm
02:35 AM 23.9°F-4.5°C 17.8°F-7.9°C 77% 13.0 mph WSW20.9 kmh WSW 14.0 mph22.5 kmh 30.20 in1022.7 mb 0.00 in0.0 mm 0.00 in0.0 mm 0.01 in0.3 mm
02:39 AM 23.5°F-4.7°C 17.4°F-8.1°C 77% 7.0 mph W11.3 kmh W 12.0 mph19.3 kmh 30.21 in1023.0 mb 0.00 in0.0 mm 0.00 in0.0 mm 0.01 in0.3 mm
02:45 AM 23.3°F-4.8°C 17.2°F-8.2°C 77% 10.0 mph SW16.1 kmh SW 13.0 mph20.9 kmh 30.21 in1023.0 mb 0.00 in0.0 mm 0.00 in0.0 mm 0.01 in0.3 mm
02:50 AM 22.9°F-5.1°C 16.2°F-8.8°C 75% 8.0 mph WNW12.9 kmh WNW 14.0 mph22.5 kmh 30.22 in1023.4 mb 0.00 in0.0 mm 0.00 in0.0 mm 0.01 in0.3 mm
02:55 AM 22.5°F-5.3°C 15.8°F-9.0°C 75% 7.0 mph SW11.3 kmh SW 19.0 mph30.6 kmh 30.22 in1023.4 mb 0.00 in0.0 mm 0.00 in0.0 mm 0.01 in0.3 mm
03:00 AM 22.4°F-5.3°C 16.0°F-8.9°C 76% 13.0 mph WNW20.9 kmh WNW 14.0 mph22.5 kmh 30.22 in1023.4 mb 0.00 in0.0 mm 0.00 in0.0 mm 0.01 in0.3 mm
03:05 AM 22.3°F-5.4°C 15.9°F-8.9°C 76% 9.0 mph W14.5 kmh W 14.0 mph22.5 kmh 30.23 in1023.7 mb 0.00 in0.0 mm 0.00 in0.0 mm 0.01 in0.3 mm
03:10 AM 22.2°F-5.4°C 15.8°F-9.0°C 76% 3.0 mph WNW4.8 kmh WNW 20.0 mph32.2 kmh 30.23 in1023.7 mb 0.00 in0.0 mm 0.00 in0.0 mm 0.01 in0.3 mm
03:14 AM 22.0°F-5.6°C 15.3°F-9.3°C 75% 11.0 mph WNW17.7 kmh WNW 13.0 mph20.9 kmh 30.23 in1023.7 mb 0.00 in0.0 mm 0.00 in0.0 mm 0.01 in0.3 mm
03:20 AM 22.0°F-5.6°C 15.3°F-9.3°C 75% 9.0 mph SSW14.5 kmh SSW 11.0 mph17.7 kmh 30.24 in1024.0 mb 0.00 in0.0 mm 0.00 in0.0 mm 0.01 in0.3 mm
03:25 AM 21.9°F-5.6°C 15.2°F-9.3°C 75% 9.0 mph WNW14.5 kmh WNW 12.0 mph19.3 kmh 30.24 in1024.0 mb 0.00 in0.0 mm 0.00 in0.0 mm 0.01 in0.3 mm
03:30 AM 21.9°F-5.6°C 15.2°F-9.3°C 75% 2.0 mph WNW3.2 kmh WNW 9.0 mph14.5 kmh 30.25 in1024.4 mb 0.00 in0.0 mm 0.00 in0.0 mm 0.01 in0.3 mm
03:34 AM 21.7°F-5.7°C 15.3°F-9.3°C 76% 10.0 mph W16.1 kmh W 22.0 mph35.4 kmh 30.25 in1024.4 mb 0.00 in0.0 mm 0.00 in0.0 mm 0.01 in0.3 mm
03:39 AM 21.5°F-5.8°C 14.8°F-9.6°C 75% 3.0 mph W4.8 kmh W 20.0 mph32.2 kmh 30.26 in1024.7 mb 0.00 in0.0 mm 0.00 in0.0 mm 0.01 in0.3 mm
03:45 AM 21.3°F-5.9°C 14.6°F-9.7°C 75% 6.0 mph W9.7 kmh W 12.0 mph19.3 kmh 30.26 in1024.7 mb 0.00 in0.0 mm 0.00 in0.0 mm 0.01 in0.3 mm
03:49 AM 21.1°F-6.1°C 14.4°F-9.8°C 75% 11.0 mph NW17.7 kmh NW 14.0 mph22.5 kmh 30.26 in1024.7 mb 0.00 in0.0 mm 0.00 in0.0 mm 0.01 in0.3 mm
03:55 AM 21.0°F-6.1°C 14.3°F-9.8°C 75% 6.0 mph SW9.7 kmh SW 10.0 mph16.1 kmh 30.27 in1025.1 mb 0.00 in0.0 mm 0.00 in0.0 mm 0.01 in0.3 mm
04:00 AM 20.9°F-6.2°C 14.2°F-9.9°C 75% 8.0 mph WSW12.9 kmh WSW 11.0 mph17.7 kmh 30.27 in1025.1 mb 0.00 in0.0 mm 0.00 in0.0 mm 0.01 in0.3 mm
04:04 AM 20.8°F-6.2°C 13.8°F-10.1°C 74% 5.0 mph WNW8.0 kmh WNW 14.0 mph22.5 kmh 30.27 in1025.1 mb 0.00 in0.0 mm 0.00 in0.0 mm 0.01 in0.3 mm
04:10 AM 20.8°F-6.2°C 13.8°F-10.1°C 74% 4.0 mph WNW6.4 kmh WNW 11.0 mph17.7 kmh 30.28 in1025.4 mb 0.00 in0.0 mm 0.00 in0.0 mm 0.01 in0.3 mm
04:15 AM 20.7°F-6.3°C 13.7°F-10.2°C 74% 5.0 mph NNW8.0 kmh NNW 13.0 mph20.9 kmh 30.28 in1025.4 mb 0.00 in0.0 mm 0.00 in0.0 mm 0.01 in0.3 mm
04:20 AM 20.6°F-6.3°C 13.6°F-10.2°C 74% 7.0 mph WNW11.3 kmh WNW 14.0 mph22.5 kmh 30.28 in1025.4 mb 0.00 in0.0 mm 0.00 in0.0 mm 0.01 in0.3 mm
04:25 AM 20.5°F-6.4°C 13.2°F-10.4°C 73% Calm Calm 12.0 mph19.3 kmh 30.28 in1025.4 mb 0.00 in0.0 mm 0.00 in0.0 mm 0.01 in0.3 mm
04:30 AM 20.5°F-6.4°C 13.2°F-10.4°C 73% 6.0 mph NW9.7 kmh NW 12.0 mph19.3 kmh 30.29 in1025.7 mb 0.00 in0.0 mm 0.00 in0.0 mm 0.01 in0.3 mm
04:35 AM 20.4°F-6.4°C 13.1°F-10.5°C 73% 9.0 mph WSW14.5 kmh WSW 10.0 mph16.1 kmh 30.29 in1025.7 mb 0.00 in0.0 mm 0.00 in0.0 mm 0.01 in0.3 mm
04:40 AM 20.2°F-6.6°C 13.3°F-10.4°C 74% 2.0 mph NNW3.2 kmh NNW 11.0 mph17.7 kmh 30.29 in1025.7 mb 0.00 in0.0 mm 0.00 in0.0 mm 0.01 in0.3 mm
04:45 AM 20.1°F-6.6°C 13.2°F-10.4°C 74% 1.0 mph NW1.6 kmh NW 9.0 mph14.5 kmh 30.29 in1025.7 mb 0.00 in0.0 mm 0.00 in0.0 mm 0.01 in0.3 mm
04:50 AM 20.0°F-6.7°C 13.1°F-10.5°C 74% 7.0 mph NW11.3 kmh NW 11.0 mph17.7 kmh 30.30 in1026.1 mb 0.00 in0.0 mm 0.00 in0.0 mm 0.01 in0.3 mm
04:55 AM 20.0°F-6.7°C 13.4°F-10.3°C 75% 6.0 mph W9.7 kmh W 9.0 mph14.5 kmh 30.30 in1026.1 mb 0.00 in0.0 mm 0.00 in0.0 mm 0.01 in0.3 mm
05:00 AM 19.9°F-6.7°C 13.6°F-10.2°C 76% 8.0 mph WNW12.9 kmh WNW 12.0 mph19.3 kmh 30.30 in1026.1 mb 0.00 in0.0 mm 0.00 in0.0 mm 0.01 in0.3 mm
05:05 AM 19.9°F-6.7°C 13.6°F-10.2°C 76% 1.0 mph NW1.6 kmh NW 8.0 mph12.9 kmh 30.30 in1026.1 mb 0.00 in0.0 mm 0.00 in0.0 mm 0.01 in0.3 mm
05:10 AM 19.9°F-6.7°C 14.2°F-9.9°C 78% 4.0 mph SW6.4 kmh SW 8.0 mph12.9 kmh 30.30 in1026.1 mb 0.00 in0.0 mm 0.00 in0.0 mm 0.01 in0.3 mm
05:15 AM 20.0°F-6.7°C 14.8°F-9.6°C 80% 3.0 mph SW4.8 kmh SW 10.0 mph16.1 kmh 30.30 in1026.1 mb 0.00 in0.0 mm 0.00 in0.0 mm 0.01 in0.3 mm
05:20 AM 19.9°F-6.7°C 14.5°F-9.7°C 79% 4.0 mph WSW6.4 kmh WSW 12.0 mph19.3 kmh 30.31 in1026.4 mb 0.00 in0.0 mm 0.00 in0.0 mm 0.01 in0.3 mm
05:25 AM 19.8°F-6.8°C 14.1°F-9.9°C 78% 5.0 mph SW8.0 kmh SW 14.0 mph22.5 kmh 30.31 in1026.4 mb 0.00 in0.0 mm 0.00 in0.0 mm 0.01 in0.3 mm
05:30 AM 19.9°F-6.7°C 13.3°F-10.4°C 75% 9.0 mph NW14.5 kmh NW 14.0 mph22.5 kmh 30.31 in1026.4 mb 0.00 in0.0 mm 0.00 in0.0 mm 0.01 in0.3 mm
05:35 AM 19.9°F-6.7°C 13.0°F-10.6°C 74% 9.0 mph W14.5 kmh W 10.0 mph16.1 kmh 30.32 in1026.8 mb 0.00 in0.0 mm 0.00 in0.0 mm 0.01 in0.3 mm
05:40 AM 19.9°F-6.7°C 13.0°F-10.6°C 74% 11.0 mph WNW17.7 kmh WNW 14.0 mph22.5 kmh 30.32 in1026.8 mb 0.00 in0.0 mm 0.00 in0.0 mm 0.01 in0.3 mm
05:45 AM 19.7°F-6.8°C 12.5°F-10.8°C 73% 4.0 mph W6.4 kmh W 11.0 mph17.7 kmh 30.32 in1026.8 mb 0.00 in0.0 mm 0.00 in0.0 mm 0.01 in0.3 mm
05:50 AM 19.4°F-7.0°C 12.2°F-11.0°C 73% 14.0 mph NW22.5 kmh NW 14.0 mph22.5 kmh 30.33 in1027.1 mb 0.00 in0.0 mm 0.00 in0.0 mm 0.01 in0.3 mm
05:55 AM 19.4°F-7.0°C 12.5°F-10.8°C 74% 3.0 mph WNW4.8 kmh WNW 11.0 mph17.7 kmh 30.32 in1026.8 mb 0.00 in0.0 mm 0.00 in0.0 mm 0.01 in0.3 mm
06:00 AM 19.3°F-7.1°C 12.7°F-10.7°C 75% 8.0 mph W12.9 kmh W 9.0 mph14.5 kmh 30.33 in1027.1 mb 0.00 in0.0 mm 0.00 in0.0 mm 0.01 in0.3 mm
06:05 AM 19.2°F-7.1°C 12.3°F-10.9°C 74% 12.0 mph SW19.3 kmh SW 12.0 mph19.3 kmh 30.33 in1027.1 mb 0.00 in0.0 mm 0.00 in0.0 mm 0.01 in0.3 mm
06:10 AM 18.9°F-7.3°C 11.4°F-11.4°C 72% 16.0 mph W25.7 kmh W 16.0 mph25.7 kmh 30.35 in1027.8 mb 0.00 in0.0 mm 0.00 in0.0 mm 0.01 in0.3 mm
06:14 AM 18.8°F-7.3°C 11.6°F-11.3°C 73% 7.0 mph W11.3 kmh W 14.0 mph22.5 kmh 30.35 in1027.8 mb 0.00 in0.0 mm 0.00 in0.0 mm 0.01 in0.3 mm
06:19 AM 18.6°F-7.4°C 11.4°F-11.4°C 73% 4.0 mph W6.4 kmh W 13.0 mph20.9 kmh 30.35 in1027.8 mb 0.00 in0.0 mm 0.00 in0.0 mm 0.01 in0.3 mm
06:25 AM 18.5°F-7.5°C 11.3°F-11.5°C 73% 17.0 mph SW27.4 kmh SW 17.0 mph27.4 kmh 30.35 in1027.8 mb 0.00 in0.0 mm 0.00 in0.0 mm 0.01 in0.3 mm
06:30 AM 18.3°F-7.6°C 10.8°F-11.8°C 72% 10.0 mph WNW16.1 kmh WNW 12.0 mph19.3 kmh 30.36 in1028.1 mb 0.00 in0.0 mm 0.00 in0.0 mm 0.01 in0.3 mm
06:35 AM 18.3°F-7.6°C 11.1°F-11.6°C 73% 5.0 mph WNW8.0 kmh WNW 13.0 mph20.9 kmh 30.36 in1028.1 mb 0.00 in0.0 mm 0.00 in0.0 mm 0.01 in0.3 mm
06:40 AM 18.3°F-7.6°C 11.4°F-11.4°C 74% 3.0 mph WNW4.8 kmh WNW 10.0 mph16.1 kmh 30.36 in1028.1 mb 0.00 in0.0 mm 0.00 in0.0 mm 0.01 in0.3 mm
06:45 AM 18.5°F-7.5°C 11.9°F-11.2°C 75% 7.0 mph NW11.3 kmh NW 12.0 mph19.3 kmh 30.36 in1028.1 mb 0.00 in0.0 mm 0.00 in0.0 mm 0.01 in0.3 mm
06:49 AM 18.4°F-7.6°C 12.4°F-10.9°C 77% 9.0 mph SW14.5 kmh SW 13.0 mph20.9 kmh 30.36 in1028.1 mb 0.00 in0.0 mm 0.00 in0.0 mm 0.01 in0.3 mm
06:55 AM 18.5°F-7.5°C 13.1°F-10.5°C 79% 13.0 mph SW20.9 kmh SW 13.0 mph20.9 kmh 30.36 in1028.1 mb 0.00 in0.0 mm 0.00 in0.0 mm 0.01 in0.3 mm
07:00 AM 18.2°F-7.7°C 12.8°F-10.7°C 79% 6.0 mph NW9.7 kmh NW 11.0 mph17.7 kmh 30.37 in1028.4 mb 0.00 in0.0 mm 0.00 in0.0 mm 0.01 in0.3 mm
07:05 AM 18.1°F-7.7°C 12.4°F-10.9°C 78% 5.0 mph SW8.0 kmh SW 8.0 mph12.9 kmh 30.37 in1028.4 mb 0.00 in0.0 mm 0.00 in0.0 mm 0.01 in0.3 mm
07:10 AM 18.2°F-7.7°C 12.2°F-11.0°C 77% 7.0 mph NW11.3 kmh NW 14.0 mph22.5 kmh 30.38 in1028.8 mb 0.00 in0.0 mm 0.00 in0.0 mm 0.01 in0.3 mm
07:15 AM 18.2°F-7.7°C 11.9°F-11.2°C 76% 4.0 mph W6.4 kmh W 11.0 mph17.7 kmh 30.38 in1028.8 mb 0.00 in0.0 mm 0.00 in0.0 mm 0.01 in0.3 mm
07:19 AM 18.2°F-7.7°C 11.9°F-11.2°C 76% 6.0 mph WNW9.7 kmh WNW 9.0 mph14.5 kmh 30.38 in1028.8 mb 0.00 in0.0 mm 0.00 in0.0 mm 0.01 in0.3 mm
07:25 AM 18.1°F-7.7°C 11.5°F-11.4°C 75% 3.0 mph WNW4.8 kmh WNW 8.0 mph12.9 kmh 30.38 in1028.8 mb 0.00 in0.0 mm 0.00 in0.0 mm 0.01 in0.3 mm
07:30 AM 18.1°F-7.7°C 11.5°F-11.4°C 75% 2.0 mph NW3.2 kmh NW 8.0 mph12.9 kmh 30.39 in1029.1 mb 0.00 in0.0 mm 0.00 in0.0 mm 0.01 in0.3 mm
07:35 AM 18.1°F-7.7°C 11.5°F-11.4°C 75% 6.0 mph SW9.7 kmh SW 13.0 mph20.9 kmh 30.39 in1029.1 mb 0.00 in0.0 mm 0.00 in0.0 mm 0.01 in0.3 mm
07:40 AM 18.1°F-7.7°C 11.5°F-11.4°C 75% 5.0 mph NW8.0 kmh NW 9.0 mph14.5 kmh 30.39 in1029.1 mb 0.00 in0.0 mm 0.00 in0.0 mm 0.01 in0.3 mm
07:44 AM 18.0°F-7.8°C 11.1°F-11.6°C 74% 9.0 mph W14.5 kmh W 13.0 mph20.9 kmh 30.39 in1029.1 mb 0.00 in0.0 mm 0.00 in0.0 mm 0.01 in0.3 mm
07:50 AM 18.0°F-7.8°C 11.1°F-11.6°C 74% 5.0 mph SW8.0 kmh SW 10.0 mph16.1 kmh 30.40 in1029.5 mb 0.00 in0.0 mm 0.00 in0.0 mm 0.01 in0.3 mm
07:55 AM 17.9°F-7.8°C 11.0°F-11.7°C 74% 4.0 mph WNW6.4 kmh WNW 10.0 mph16.1 kmh 30.40 in1029.5 mb 0.00 in0.0 mm 0.00 in0.0 mm 0.01 in0.3 mm
08:00 AM 17.9°F-7.8°C 11.0°F-11.7°C 74% 6.0 mph W9.7 kmh W 11.0 mph17.7 kmh 30.41 in1029.8 mb 0.00 in0.0 mm 0.00 in0.0 mm 0.01 in0.3 mm
08:05 AM 18.0°F-7.8°C 11.4°F-11.4°C 75% 3.0 mph W4.8 kmh W 6.0 mph9.7 kmh 30.41 in1029.8 mb 0.00 in0.0 mm 0.00 in0.0 mm 0.01 in0.3 mm
08:10 AM 18.2°F-7.7°C 11.9°F-11.2°C 76% 7.0 mph WNW11.3 kmh WNW 10.0 mph16.1 kmh 30.41 in1029.8 mb 0.00 in0.0 mm 0.00 in0.0 mm 0.01 in0.3 mm
08:15 AM 18.0°F-7.8°C 11.4°F-11.4°C 75% 7.0 mph NW11.3 kmh NW 9.0 mph14.5 kmh 30.41 in1029.8 mb 0.00 in0.0 mm 0.00 in0.0 mm 0.01 in0.3 mm
08:20 AM 17.9°F-7.8°C 11.0°F-11.7°C 74% 9.0 mph NW14.5 kmh NW 14.0 mph22.5 kmh 30.42 in1030.1 mb 0.00 in0.0 mm 0.00 in0.0 mm 0.01 in0.3 mm
08:25 AM 17.6°F-8.0°C 10.1°F-12.2°C 72% 3.0 mph WNW4.8 kmh WNW 13.0 mph20.9 kmh 30.42 in1030.1 mb 0.00 in0.0 mm 0.00 in0.0 mm 0.01 in0.3 mm
08:30 AM 17.4°F-8.1°C 9.9°F-12.3°C 72% 5.0 mph WSW8.0 kmh WSW 12.0 mph19.3 kmh 30.43 in1030.5 mb 0.00 in0.0 mm 0.00 in0.0 mm 0.01 in0.3 mm
08:35 AM 17.3°F-8.2°C 10.1°F-12.2°C 73% 6.0 mph SW9.7 kmh SW 9.0 mph14.5 kmh 30.43 in1030.5 mb 0.00 in0.0 mm 0.00 in0.0 mm 0.01 in0.3 mm
08:39 AM 17.3°F-8.2°C 10.1°F-12.2°C 73% 4.0 mph SW6.4 kmh SW 8.0 mph12.9 kmh 30.43 in1030.5 mb 0.00 in0.0 mm 0.00 in0.0 mm 0.01 in0.3 mm
08:45 AM 17.4°F-8.1°C 10.9°F-11.7°C 75% 1.0 mph WNW1.6 kmh WNW 7.0 mph11.3 kmh 30.44 in1030.8 mb 0.00 in0.0 mm 0.00 in0.0 mm 0.01 in0.3 mm
08:50 AM 17.5°F-8.1°C 10.9°F-11.7°C 75% 2.0 mph WSW3.2 kmh WSW 11.0 mph17.7 kmh 30.44 in1030.8 mb 0.00 in0.0 mm 0.00 in0.0 mm 0.01 in0.3 mm
08:54 AM 17.5°F-8.1°C 10.9°F-11.7°C 75% 1.0 mph W1.6 kmh W 10.0 mph16.1 kmh 30.44 in1030.8 mb 0.00 in0.0 mm 0.00 in0.0 mm 0.01 in0.3 mm
09:00 AM 17.6°F-8.0°C 11.3°F-11.5°C 76% 4.0 mph WNW6.4 kmh WNW 10.0 mph16.1 kmh 30.45 in1031.2 mb 0.00 in0.0 mm 0.00 in0.0 mm 0.01 in0.3 mm
09:05 AM 17.7°F-7.9°C 11.7°F-11.3°C 77% 10.0 mph WSW16.1 kmh WSW 10.0 mph16.1 kmh 30.46 in1031.5 mb 0.00 in0.0 mm 0.00 in0.0 mm 0.01 in0.3 mm
09:10 AM 17.5°F-8.1°C 11.2°F-11.6°C 76% 3.0 mph WNW4.8 kmh WNW 10.0 mph16.1 kmh 30.46 in1031.5 mb 0.00 in0.0 mm 0.00 in0.0 mm 0.01 in0.3 mm
09:15 AM 17.3°F-8.2°C 10.5°F-11.9°C 74% 3.0 mph W4.8 kmh W 12.0 mph19.3 kmh 30.46 in1031.5 mb 0.00 in0.0 mm 0.00 in0.0 mm 0.01 in0.3 mm
09:20 AM 17.1°F-8.3°C 10.3°F-12.1°C 74% 7.0 mph WNW11.3 kmh WNW 10.0 mph16.1 kmh 30.47 in1031.8 mb 0.00 in0.0 mm 0.00 in0.0 mm 0.01 in0.3 mm
09:25 AM 17.0°F-8.3°C 10.5°F-11.9°C 75% 7.0 mph WSW11.3 kmh WSW 13.0 mph20.9 kmh 30.47 in1031.8 mb 0.00 in0.0 mm 0.00 in0.0 mm 0.01 in0.3 mm
09:30 AM 16.7°F-8.5°C 9.9°F-12.3°C 74% 10.0 mph WSW16.1 kmh WSW 12.0 mph19.3 kmh 30.47 in1031.8 mb 0.00 in0.0 mm 0.00 in0.0 mm 0.01 in0.3 mm
09:35 AM 16.6°F-8.6°C 9.8°F-12.3°C 74% 4.0 mph NW6.4 kmh NW 15.0 mph24.1 kmh 30.48 in1032.2 mb 0.00 in0.0 mm 0.00 in0.0 mm 0.01 in0.3 mm
09:40 AM 16.7°F-8.5°C 10.2°F-12.1°C 75% 6.0 mph NW9.7 kmh NW 10.0 mph16.1 kmh 30.48 in1032.2 mb 0.00 in0.0 mm 0.00 in0.0 mm 0.01 in0.3 mm
09:45 AM 16.8°F-8.4°C 10.3°F-12.1°C 75% 8.0 mph WSW12.9 kmh WSW 10.0 mph16.1 kmh 30.49 in1032.5 mb 0.00 in0.0 mm 0.00 in0.0 mm 0.01 in0.3 mm
09:50 AM 16.8°F-8.4°C 10.0°F-12.2°C 74% 6.0 mph W9.7 kmh W 10.0 mph16.1 kmh 30.49 in1032.5 mb 0.00 in0.0 mm 0.00 in0.0 mm 0.01 in0.3 mm
09:55 AM 16.8°F-8.4°C 10.0°F-12.2°C 74% 4.0 mph SW6.4 kmh SW 9.0 mph14.5 kmh 30.49 in1032.5 mb 0.00 in0.0 mm 0.00 in0.0 mm 0.01 in0.3 mm
10:00 AM 17.0°F-8.3°C 10.2°F-12.1°C 74% 1.0 mph W1.6 kmh W 11.0 mph17.7 kmh 30.50 in1032.8 mb 0.00 in0.0 mm 0.00 in0.0 mm 0.01 in0.3 mm
10:05 AM 16.9°F-8.4°C 9.8°F-12.3°C 73% 7.0 mph NW11.3 kmh NW 12.0 mph19.3 kmh 30.50 in1032.8 mb 0.00 in0.0 mm 0.00 in0.0 mm 0.01 in0.3 mm
10:10 AM 17.0°F-8.3°C 10.2°F-12.1°C 74% 3.0 mph WSW4.8 kmh WSW 15.0 mph24.1 kmh 30.50 in1032.8 mb 0.00 in0.0 mm 0.00 in0.0 mm 0.01 in0.3 mm
10:15 AM 17.1°F-8.3°C 10.3°F-12.1°C 74% 5.0 mph WSW8.0 kmh WSW 8.0 mph12.9 kmh 30.50 in1032.8 mb 0.00 in0.0 mm 0.00 in0.0 mm 0.01 in0.3 mm
10:20 AM 17.3°F-8.2°C 10.8°F-11.8°C 75% 11.0 mph NW17.7 kmh NW 11.0 mph17.7 kmh 30.50 in1032.8 mb 0.00 in0.0 mm 0.00 in0.0 mm 0.01 in0.3 mm
10:25 AM 17.5°F-8.1°C 10.6°F-11.9°C 74% 7.0 mph SW11.3 kmh SW 11.0 mph17.7 kmh 30.50 in1032.8 mb 0.00 in0.0 mm 0.00 in0.0 mm 0.01 in0.3 mm
10:30 AM 17.6°F-8.0°C 10.7°F-11.8°C 74% 9.0 mph SW14.5 kmh SW 10.0 mph16.1 kmh 30.51 in1033.2 mb 0.00 in0.0 mm 0.00 in0.0 mm 0.01 in0.3 mm
10:35 AM 17.6°F-8.0°C 10.7°F-11.8°C 74% 6.0 mph W9.7 kmh W 10.0 mph16.1 kmh 30.51 in1033.2 mb 0.00 in0.0 mm 0.00 in0.0 mm 0.01 in0.3 mm
10:40 AM 17.7°F-7.9°C 10.5°F-11.9°C 73% 4.0 mph WSW6.4 kmh WSW 12.0 mph19.3 kmh 30.51 in1033.2 mb 0.00 in0.0 mm 0.00 in0.0 mm 0.01 in0.3 mm
10:45 AM 17.9°F-7.8°C 11.0°F-11.7°C 74% 10.0 mph NW16.1 kmh NW 12.0 mph19.3 kmh 30.51 in1033.2 mb 0.00 in0.0 mm 0.00 in0.0 mm 0.01 in0.3 mm
10:50 AM 17.9°F-7.8°C 10.4°F-12.0°C 72% 9.0 mph WSW14.5 kmh WSW 13.0 mph20.9 kmh 30.52 in1033.5 mb 0.00 in0.0 mm 0.00 in0.0 mm 0.01 in0.3 mm
10:55 AM 18.0°F-7.8°C 10.8°F-11.8°C 73% 5.0 mph SW8.0 kmh SW 10.0 mph16.1 kmh 30.52 in1033.5 mb 0.00 in0.0 mm 0.00 in0.0 mm 0.01 in0.3 mm
10:59 AM 18.3°F-7.6°C 11.4°F-11.4°C 74% 7.0 mph WNW11.3 kmh WNW 8.0 mph12.9 kmh 30.52 in1033.5 mb 0.00 in0.0 mm 0.00 in0.0 mm 0.01 in0.3 mm
11:05 AM 18.4°F-7.6°C 10.9°F-11.7°C 72% 9.0 mph WNW14.5 kmh WNW 11.0 mph17.7 kmh 30.52 in1033.5 mb 0.00 in0.0 mm 0.00 in0.0 mm 0.01 in0.3 mm
11:09 AM 18.2°F-7.7°C 10.7°F-11.8°C 72% 5.0 mph NW8.0 kmh NW 9.0 mph14.5 kmh 30.53 in1033.9 mb 0.00 in0.0 mm 0.00 in0.0 mm 0.01 in0.3 mm
11:15 AM 18.2°F-7.7°C 10.4°F-12.0°C 71% 1.0 mph WNW1.6 kmh WNW 14.0 mph22.5 kmh 30.53 in1033.9 mb 0.00 in0.0 mm 0.00 in0.0 mm 0.01 in0.3 mm
11:20 AM 18.4°F-7.6°C 10.9°F-11.7°C 72% 4.0 mph NW6.4 kmh NW 9.0 mph14.5 kmh 30.53 in1033.9 mb 0.00 in0.0 mm 0.00 in0.0 mm 0.01 in0.3 mm
11:25 AM 18.6°F-7.4°C 11.1°F-11.6°C 72% 6.0 mph SW9.7 kmh SW 9.0 mph14.5 kmh 30.53 in1033.9 mb 0.00 in0.0 mm 0.00 in0.0 mm 0.01 in0.3 mm
11:30 AM 18.6°F-7.4°C 11.1°F-11.6°C 72% 4.0 mph WNW6.4 kmh WNW 14.0 mph22.5 kmh 30.54 in1034.2 mb 0.00 in0.0 mm 0.00 in0.0 mm 0.01 in0.3 mm
11:35 AM 18.7°F-7.4°C 11.5°F-11.4°C 73% 4.0 mph W6.4 kmh W 8.0 mph12.9 kmh 30.54 in1034.2 mb 0.00 in0.0 mm 0.00 in0.0 mm 0.01 in0.3 mm
11:40 AM 18.7°F-7.4°C 11.5°F-11.4°C 73% 8.0 mph W12.9 kmh W 11.0 mph17.7 kmh 30.55 in1034.5 mb 0.00 in0.0 mm 0.00 in0.0 mm 0.01 in0.3 mm
11:44 AM 18.9°F-7.3°C 11.7°F-11.3°C 73% 4.0 mph WNW6.4 kmh WNW 12.0 mph19.3 kmh 30.55 in1034.5 mb 0.00 in0.0 mm 0.00 in0.0 mm 0.01 in0.3 mm
11:50 AM 18.8°F-7.3°C 11.3°F-11.5°C 72% 8.0 mph WNW12.9 kmh WNW 11.0 mph17.7 kmh 30.55 in1034.5 mb 0.00 in0.0 mm 0.00 in0.0 mm 0.01 in0.3 mm
11:55 AM 19.0°F-7.2°C 11.5°F-11.4°C 72% Calm Calm 10.0 mph16.1 kmh 30.56 in1034.9 mb 0.00 in0.0 mm 0.00 in0.0 mm 0.01 in0.3 mm
12:00 PM 19.2°F-7.1°C 11.7°F-11.3°C 72% Calm Calm 8.0 mph12.9 kmh 30.56 in1034.9 mb 0.00 in0.0 mm 0.00 in0.0 mm 0.01 in0.3 mm
12:05 PM 19.4°F-7.0°C 10.9°F-11.7°C 69% 5.0 mph WNW8.0 kmh WNW 13.0 mph20.9 kmh 30.56 in1034.9 mb 0.00 in0.0 mm 0.00 in0.0 mm 0.01 in0.3 mm
12:10 PM 19.2°F-7.1°C 10.4°F-12.0°C 68% 3.0 mph W4.8 kmh W 17.0 mph27.4 kmh 30.56 in1034.9 mb 0.00 in0.0 mm 0.00 in0.0 mm 0.01 in0.3 mm
12:15 PM 19.0°F-7.2°C 9.9°F-12.3°C 67% 3.0 mph W4.8 kmh W 11.0 mph17.7 kmh 30.57 in1035.2 mb 0.00 in0.0 mm 0.00 in0.0 mm 0.01 in0.3 mm
12:20 PM 19.0°F-7.2°C 10.2°F-12.1°C 68% 4.0 mph WSW6.4 kmh WSW 12.0 mph19.3 kmh 30.57 in1035.2 mb 0.00 in0.0 mm 0.00 in0.0 mm 0.01 in0.3 mm
12:24 PM 19.1°F-7.2°C 10.3°F-12.1°C 68% 9.0 mph NW14.5 kmh NW 9.0 mph14.5 kmh 30.57 in1035.2 mb 0.00 in0.0 mm 0.00 in0.0 mm 0.01 in0.3 mm
12:30 PM 19.1°F-7.2°C 10.0°F-12.2°C 67% 4.0 mph NW6.4 kmh NW 8.0 mph12.9 kmh 30.58 in1035.6 mb 0.00 in0.0 mm 0.00 in0.0 mm 0.01 in0.3 mm
12:34 PM 19.1°F-7.2°C 10.3°F-12.1°C 68% 8.0 mph W12.9 kmh W 11.0 mph17.7 kmh 30.58 in1035.6 mb 0.00 in0.0 mm 0.00 in0.0 mm 0.01 in0.3 mm
12:40 PM 19.1°F-7.2°C 10.3°F-12.1°C 68% 8.0 mph WSW12.9 kmh WSW 9.0 mph14.5 kmh 30.58 in1035.6 mb 0.00 in0.0 mm 0.00 in0.0 mm 0.01 in0.3 mm
12:45 PM 20.0°F-6.7°C 11.2°F-11.6°C 68% 2.0 mph NW3.2 kmh NW 12.0 mph19.3 kmh 30.58 in1035.6 mb 0.00 in0.0 mm 0.00 in0.0 mm 0.01 in0.3 mm
12:50 PM 20.4°F-6.4°C 11.5°F-11.4°C 68% 7.0 mph SW11.3 kmh SW 12.0 mph19.3 kmh 30.58 in1035.6 mb 0.00 in0.0 mm 0.00 in0.0 mm 0.01 in0.3 mm
12:54 PM 20.4°F-6.4°C 10.9°F-11.7°C 66% 7.0 mph WNW11.3 kmh WNW 14.0 mph22.5 kmh 30.58 in1035.6 mb 0.00 in0.0 mm 0.00 in0.0 mm 0.01 in0.3 mm
01:00 PM 20.3°F-6.5°C 11.1°F-11.6°C 67% 2.0 mph W3.2 kmh W 10.0 mph16.1 kmh 30.59 in1035.9 mb 0.00 in0.0 mm 0.00 in0.0 mm 0.01 in0.3 mm
01:05 PM 20.4°F-6.4°C 11.2°F-11.6°C 67% 11.0 mph WSW17.7 kmh WSW 11.0 mph17.7 kmh 30.59 in1035.9 mb 0.00 in0.0 mm 0.00 in0.0 mm 0.01 in0.3 mm
01:09 PM 20.6°F-6.3°C 11.4°F-11.4°C 67% 4.0 mph W6.4 kmh W 11.0 mph17.7 kmh 30.59 in1035.9 mb 0.00 in0.0 mm 0.00 in0.0 mm 0.01 in0.3 mm
01:15 PM 21.3°F-5.9°C 12.1°F-11.1°C 67% 8.0 mph WNW12.9 kmh WNW 13.0 mph20.9 kmh 30.59 in1035.9 mb 0.00 in0.0 mm 0.00 in0.0 mm 0.01 in0.3 mm
01:20 PM 21.7°F-5.7°C 12.5°F-10.8°C 67% 7.0 mph WSW11.3 kmh WSW 12.0 mph19.3 kmh 30.60 in1036.2 mb 0.00 in0.0 mm 0.00 in0.0 mm 0.01 in0.3 mm
01:25 PM 21.4°F-5.9°C 11.1°F-11.6°C 64% 9.0 mph NW14.5 kmh NW 10.0 mph16.1 kmh 30.60 in1036.2 mb 0.00 in0.0 mm 0.00 in0.0 mm 0.01 in0.3 mm
01:30 PM 20.9°F-6.2°C 11.0°F-11.7°C 65% 8.0 mph NW12.9 kmh NW 10.0 mph16.1 kmh 30.60 in1036.2 mb 0.00 in0.0 mm 0.00 in0.0 mm 0.01 in0.3 mm
01:35 PM 21.2°F-6.0°C 11.3°F-11.5°C 65% 4.0 mph NW6.4 kmh NW 12.0 mph19.3 kmh 30.60 in1036.2 mb 0.00 in0.0 mm 0.00 in0.0 mm 0.01 in0.3 mm
01:40 PM 21.0°F-6.1°C 10.8°F-11.8°C 64% 9.0 mph WSW14.5 kmh WSW 17.0 mph27.4 kmh 30.60 in1036.2 mb 0.00 in0.0 mm 0.00 in0.0 mm 0.01 in0.3 mm
01:45 PM 21.1°F-6.1°C 11.2°F-11.6°C 65% 3.0 mph W4.8 kmh W 7.0 mph11.3 kmh 30.60 in1036.2 mb 0.00 in0.0 mm 0.00 in0.0 mm 0.01 in0.3 mm
01:50 PM 21.2°F-6.0°C 10.9°F-11.7°C 64% 3.0 mph NW4.8 kmh NW 10.0 mph16.1 kmh 30.60 in1036.2 mb 0.00 in0.0 mm 0.00 in0.0 mm 0.01 in0.3 mm
01:55 PM 21.5°F-5.8°C 11.6°F-11.3°C 65% 6.0 mph WNW9.7 kmh WNW 13.0 mph20.9 kmh 30.60 in1036.2 mb 0.00 in0.0 mm 0.00 in0.0 mm 0.01 in0.3 mm
02:00 PM 21.3°F-5.9°C 11.7°F-11.3°C 66% 3.0 mph W4.8 kmh W 8.0 mph12.9 kmh 30.60 in1036.2 mb 0.00 in0.0 mm 0.00 in0.0 mm 0.01 in0.3 mm
02:05 PM 21.2°F-6.0°C 11.6°F-11.3°C 66% 4.0 mph WNW6.4 kmh WNW 10.0 mph16.1 kmh 30.60 in1036.2 mb 0.00 in0.0 mm 0.00 in0.0 mm 0.01 in0.3 mm
02:10 PM 21.3°F-5.9°C 12.4°F-10.9°C 68% 8.0 mph W12.9 kmh W 13.0 mph20.9 kmh 30.60 in1036.2 mb 0.00 in0.0 mm 0.00 in0.0 mm 0.01 in0.3 mm
02:14 PM 20.9°F-6.2°C 12.0°F-11.1°C 68% 8.0 mph NW12.9 kmh NW 12.0 mph19.3 kmh 30.60 in1036.2 mb 0.00 in0.0 mm 0.00 in0.0 mm 0.01 in0.3 mm
02:20 PM 20.8°F-6.2°C 12.3°F-10.9°C 69% 4.0 mph SW6.4 kmh SW 15.0 mph24.1 kmh 30.61 in1036.6 mb 0.00 in0.0 mm 0.00 in0.0 mm 0.01 in0.3 mm
02:24 PM 21.0°F-6.1°C 12.4°F-10.9°C 69% 4.0 mph W6.4 kmh W 17.0 mph27.4 kmh 30.61 in1036.6 mb 0.00 in0.0 mm 0.00 in0.0 mm 0.01 in0.3 mm
02:30 PM 21.1°F-6.1°C 12.2°F-11.0°C 68% 6.0 mph SW9.7 kmh SW 13.0 mph20.9 kmh 30.61 in1036.6 mb 0.00 in0.0 mm 0.00 in0.0 mm 0.01 in0.3 mm
02:35 PM 21.7°F-5.7°C 12.8°F-10.7°C 68% 5.0 mph WNW8.0 kmh WNW 14.0 mph22.5 kmh 30.61 in1036.6 mb 0.00 in0.0 mm 0.00 in0.0 mm 0.01 in0.3 mm
02:40 PM 22.3°F-5.4°C 13.0°F-10.6°C 67% 8.0 mph W12.9 kmh W 9.0 mph14.5 kmh 30.61 in1036.6 mb 0.00 in0.0 mm 0.00 in0.0 mm 0.01 in0.3 mm
02:44 PM 22.1°F-5.5°C 12.5°F-10.8°C 66% 2.0 mph WSW3.2 kmh WSW 11.0 mph17.7 kmh 30.61 in1036.6 mb 0.00 in0.0 mm 0.00 in0.0 mm 0.01 in0.3 mm
02:50 PM 21.9°F-5.6°C 11.6°F-11.3°C 64% 6.0 mph SW9.7 kmh SW 17.0 mph27.4 kmh 30.61 in1036.6 mb 0.00 in0.0 mm 0.00 in0.0 mm 0.01 in0.3 mm
02:55 PM 22.2°F-5.4°C 12.2°F-11.0°C 65% 2.0 mph WNW3.2 kmh WNW 16.0 mph25.7 kmh 30.61 in1036.6 mb 0.00 in0.0 mm 0.00 in0.0 mm 0.01 in0.3 mm
03:00 PM 22.6°F-5.2°C 13.0°F-10.6°C 66% 10.0 mph NW16.1 kmh NW 15.0 mph24.1 kmh 30.61 in1036.6 mb 0.00 in0.0 mm 0.00 in0.0 mm 0.01 in0.3 mm
03:05 PM 22.6°F-5.2°C 12.3°F-10.9°C 64% 5.0 mph WNW8.0 kmh WNW 16.0 mph25.7 kmh 30.61 in1036.6 mb 0.00 in0.0 mm 0.00 in0.0 mm 0.01 in0.3 mm
03:10 PM 22.4°F-5.3°C 11.4°F-11.4°C 62% 8.0 mph WNW12.9 kmh WNW 15.0 mph24.1 kmh 30.62 in1036.9 mb 0.00 in0.0 mm 0.00 in0.0 mm 0.01 in0.3 mm
03:15 PM 22.1°F-5.5°C 11.4°F-11.4°C 63% 4.0 mph W6.4 kmh W 11.0 mph17.7 kmh 30.61 in1036.6 mb 0.00 in0.0 mm 0.00 in0.0 mm 0.01 in0.3 mm
03:20 PM 21.8°F-5.7°C 11.2°F-11.6°C 63% 8.0 mph WSW12.9 kmh WSW 9.0 mph14.5 kmh 30.61 in1036.6 mb 0.00 in0.0 mm 0.00 in0.0 mm 0.01 in0.3 mm
03:25 PM 22.1°F-5.5°C 11.8°F-11.2°C 64% 3.0 mph NW4.8 kmh NW 15.0 mph24.1 kmh 30.61 in1036.6 mb 0.00 in0.0 mm 0.00 in0.0 mm 0.01 in0.3 mm
03:30 PM 22.4°F-5.3°C 11.7°F-11.3°C 63% 3.0 mph WNW4.8 kmh WNW 14.0 mph22.5 kmh 30.61 in1036.6 mb 0.00 in0.0 mm 0.00 in0.0 mm 0.01 in0.3 mm
03:35 PM 22.3°F-5.4°C 12.3°F-10.9°C 65% 3.0 mph WNW4.8 kmh WNW 10.0 mph16.1 kmh 30.61 in1036.6 mb 0.00 in0.0 mm 0.00 in0.0 mm 0.01 in0.3 mm
03:40 PM 21.8°F-5.7°C 11.2°F-11.6°C 63% 2.0 mph WNW3.2 kmh WNW 15.0 mph24.1 kmh 30.61 in1036.6 mb 0.00 in0.0 mm 0.00 in0.0 mm 0.01 in0.3 mm
03:45 PM 22.0°F-5.6°C 12.4°F-10.9°C 66% 4.0 mph WSW6.4 kmh WSW 8.0 mph12.9 kmh 30.61 in1036.6 mb 0.00 in0.0 mm 0.00 in0.0 mm 0.01 in0.3 mm
03:50 PM 22.6°F-5.2°C 13.0°F-10.6°C 66% 8.0 mph W12.9 kmh W 16.0 mph25.7 kmh 30.61 in1036.6 mb 0.00 in0.0 mm 0.00 in0.0 mm 0.01 in0.3 mm
03:55 PM 22.9°F-5.1°C 12.6°F-10.8°C 64% 10.0 mph NW16.1 kmh NW 11.0 mph17.7 kmh 30.61 in1036.6 mb 0.00 in0.0 mm 0.00 in0.0 mm 0.01 in0.3 mm
04:00 PM 23.3°F-4.8°C 12.2°F-11.0°C 62% 7.0 mph SW11.3 kmh SW 12.0 mph19.3 kmh 30.61 in1036.6 mb 0.00 in0.0 mm 0.00 in0.0 mm 0.01 in0.3 mm
04:05 PM 23.8°F-4.6°C 12.7°F-10.7°C 62% 3.0 mph W4.8 kmh W 12.0 mph19.3 kmh 30.62 in1036.9 mb 0.00 in0.0 mm 0.00 in0.0 mm 0.01 in0.3 mm
04:10 PM 23.2°F-4.9°C 11.8°F-11.2°C 61% 8.0 mph WSW12.9 kmh WSW 12.0 mph19.3 kmh 30.62 in1036.9 mb 0.00 in0.0 mm 0.00 in0.0 mm 0.01 in0.3 mm
04:15 PM 22.4°F-5.3°C 11.4°F-11.4°C 62% 4.0 mph NW6.4 kmh NW 10.0 mph16.1 kmh 30.62 in1036.9 mb 0.00 in0.0 mm 0.00 in0.0 mm 0.01 in0.3 mm
04:20 PM 22.1°F-5.5°C 11.4°F-11.4°C 63% 4.0 mph NW6.4 kmh NW 9.0 mph14.5 kmh 30.62 in1036.9 mb 0.00 in0.0 mm 0.00 in0.0 mm 0.01 in0.3 mm
04:25 PM 22.0°F-5.6°C 11.4°F-11.4°C 63% 9.0 mph NW14.5 kmh NW 14.0 mph22.5 kmh 30.62 in1036.9 mb 0.00 in0.0 mm 0.00 in0.0 mm 0.01 in0.3 mm
04:30 PM 22.1°F-5.5°C 11.8°F-11.2°C 64% 1.0 mph NW1.6 kmh NW 9.0 mph14.5 kmh 30.62 in1036.9 mb 0.00 in0.0 mm 0.00 in0.0 mm 0.01 in0.3 mm
04:35 PM 22.2°F-5.4°C 11.5°F-11.4°C 63% 3.0 mph NW4.8 kmh NW 9.0 mph14.5 kmh 30.62 in1036.9 mb 0.00 in0.0 mm 0.00 in0.0 mm 0.01 in0.3 mm
04:39 PM 22.0°F-5.6°C 11.0°F-11.7°C 62% 9.0 mph NW14.5 kmh NW 12.0 mph19.3 kmh 30.62 in1036.9 mb 0.00 in0.0 mm 0.00 in0.0 mm 0.01 in0.3 mm
04:45 PM 21.6°F-5.8°C 11.0°F-11.7°C 63% 5.0 mph WNW8.0 kmh WNW 9.0 mph14.5 kmh 30.63 in1037.3 mb 0.00 in0.0 mm 0.00 in0.0 mm 0.01 in0.3 mm
04:50 PM 21.5°F-5.8°C 11.2°F-11.6°C 64% 8.0 mph NW12.9 kmh NW 11.0 mph17.7 kmh 30.63 in1037.3 mb 0.00 in0.0 mm 0.00 in0.0 mm 0.01 in0.3 mm
04:55 PM 22.1°F-5.5°C 12.2°F-11.0°C 65% 2.0 mph WNW3.2 kmh WNW 6.0 mph9.7 kmh 30.63 in1037.3 mb 0.00 in0.0 mm 0.00 in0.0 mm 0.01 in0.3 mm
04:59 PM 22.3°F-5.4°C 12.0°F-11.1°C 64% 8.0 mph WSW12.9 kmh WSW 9.0 mph14.5 kmh 30.63 in1037.3 mb 0.00 in0.0 mm 0.00 in0.0 mm 0.01 in0.3 mm
05:05 PM 22.2°F-5.4°C 11.5°F-11.4°C 63% 8.0 mph NW12.9 kmh NW 10.0 mph16.1 kmh 30.63 in1037.3 mb 0.00 in0.0 mm 0.00 in0.0 mm 0.01 in0.3 mm
05:10 PM 21.8°F-5.7°C 11.5°F-11.4°C 64% 2.0 mph NW3.2 kmh NW 8.0 mph12.9 kmh 30.63 in1037.3 mb 0.00 in0.0 mm 0.00 in0.0 mm 0.01 in0.3 mm
05:15 PM 21.3°F-5.9°C 10.7°F-11.8°C 63% 6.0 mph W9.7 kmh W 10.0 mph16.1 kmh 30.64 in1037.6 mb 0.00 in0.0 mm 0.00 in0.0 mm 0.01 in0.3 mm
05:20 PM 21.2°F-6.0°C 10.9°F-11.7°C 64% 6.0 mph NW9.7 kmh NW 8.0 mph12.9 kmh 30.64 in1037.6 mb 0.00 in0.0 mm 0.00 in0.0 mm 0.01 in0.3 mm
05:25 PM 21.5°F-5.8°C 11.6°F-11.3°C 65% 3.0 mph NW4.8 kmh NW 6.0 mph9.7 kmh 30.64 in1037.6 mb 0.00 in0.0 mm 0.00 in0.0 mm 0.01 in0.3 mm
05:29 PM 21.9°F-5.6°C 11.6°F-11.3°C 64% 5.0 mph WNW8.0 kmh WNW 11.0 mph17.7 kmh 30.65 in1037.9 mb 0.00 in0.0 mm 0.00 in0.0 mm 0.01 in0.3 mm
05:35 PM 22.3°F-5.4°C 12.0°F-11.1°C 64% 2.0 mph N3.2 kmh N 9.0 mph14.5 kmh 30.65 in1037.9 mb 0.00 in0.0 mm 0.00 in0.0 mm 0.01 in0.3 mm
05:39 PM 22.9°F-5.1°C 12.2°F-11.0°C 63% 1.0 mph SW1.6 kmh SW 13.0 mph20.9 kmh 30.64 in1037.6 mb 0.00 in0.0 mm 0.00 in0.0 mm 0.01 in0.3 mm
05:45 PM 23.1°F-4.9°C 12.0°F-11.1°C 62% 7.0 mph WNW11.3 kmh WNW 12.0 mph19.3 kmh 30.65 in1037.9 mb 0.00 in0.0 mm 0.00 in0.0 mm 0.01 in0.3 mm
05:50 PM 23.0°F-5.0°C 12.3°F-10.9°C 63% 4.0 mph WNW6.4 kmh WNW 10.0 mph16.1 kmh 30.65 in1037.9 mb 0.00 in0.0 mm 0.00 in0.0 mm 0.01 in0.3 mm
05:55 PM 23.0°F-5.0°C 12.3°F-10.9°C 63% 6.0 mph NW9.7 kmh NW 8.0 mph12.9 kmh 30.65 in1037.9 mb 0.00 in0.0 mm 0.00 in0.0 mm 0.01 in0.3 mm
06:00 PM 22.5°F-5.3°C 11.5°F-11.4°C 62% 1.0 mph NW1.6 kmh NW 7.0 mph11.3 kmh 30.65 in1037.9 mb 0.00 in0.0 mm 0.00 in0.0 mm 0.01 in0.3 mm
06:05 PM 22.2°F-5.4°C 11.5°F-11.4°C 63% 3.0 mph W4.8 kmh W 6.0 mph9.7 kmh 30.66 in1038.3 mb 0.00 in0.0 mm 0.00 in0.0 mm 0.01 in0.3 mm
06:10 PM 22.0°F-5.6°C 11.7°F-11.3°C 64% 7.0 mph NW11.3 kmh NW 9.0 mph14.5 kmh 30.66 in1038.3 mb 0.00 in0.0 mm 0.00 in0.0 mm 0.01 in0.3 mm
06:15 PM 21.5°F-5.8°C 10.9°F-11.7°C 63% 3.0 mph NW4.8 kmh NW 7.0 mph11.3 kmh 30.66 in1038.3 mb 0.00 in0.0 mm 0.00 in0.0 mm 0.01 in0.3 mm
06:20 PM 21.2°F-6.0°C 10.6°F-11.9°C 63% 2.0 mph NW3.2 kmh NW 7.0 mph11.3 kmh 30.67 in1038.6 mb 0.00 in0.0 mm 0.00 in0.0 mm 0.01 in0.3 mm
06:25 PM 21.0°F-6.1°C 10.4°F-12.0°C 63% 2.0 mph WNW3.2 kmh WNW 9.0 mph14.5 kmh 30.67 in1038.6 mb 0.00 in0.0 mm 0.00 in0.0 mm 0.01 in0.3 mm
06:30 PM 20.9°F-6.2°C 10.7°F-11.8°C 64% 1.0 mph NW1.6 kmh NW 8.0 mph12.9 kmh 30.67 in1038.6 mb 0.00 in0.0 mm 0.00 in0.0 mm 0.01 in0.3 mm
06:35 PM 21.0°F-6.1°C 11.1°F-11.6°C 65% Calm Calm 7.0 mph11.3 kmh 30.67 in1038.6 mb 0.00 in0.0 mm 0.00 in0.0 mm 0.01 in0.3 mm
06:40 PM 21.1°F-6.1°C 11.2°F-11.6°C 65% 3.0 mph WSW4.8 kmh WSW 4.0 mph6.4 kmh 30.67 in1038.6 mb 0.00 in0.0 mm 0.00 in0.0 mm 0.01 in0.3 mm
06:45 PM 21.0°F-6.1°C 11.1°F-11.6°C 65% 9.0 mph WSW14.5 kmh WSW 10.0 mph16.1 kmh 30.68 in1038.9 mb 0.00 in0.0 mm 0.00 in0.0 mm 0.01 in0.3 mm
06:49 PM 20.7°F-6.3°C 10.8°F-11.8°C 65% 2.0 mph SW3.2 kmh SW 5.0 mph8.0 kmh 30.68 in1038.9 mb 0.00 in0.0 mm 0.00 in0.0 mm 0.01 in0.3 mm
06:55 PM 20.6°F-6.3°C 10.7°F-11.8°C 65% 3.0 mph NW4.8 kmh NW 6.0 mph9.7 kmh 30.68 in1038.9 mb 0.00 in0.0 mm 0.00 in0.0 mm 0.01 in0.3 mm
06:59 PM 20.6°F-6.3°C 10.7°F-11.8°C 65% Calm Calm 8.0 mph12.9 kmh 30.68 in1038.9 mb 0.00 in0.0 mm 0.00 in0.0 mm 0.01 in0.3 mm
07:05 PM 20.6°F-6.3°C 10.7°F-11.8°C 65% 8.0 mph NW12.9 kmh NW 8.0 mph12.9 kmh 30.68 in1038.9 mb 0.00 in0.0 mm 0.00 in0.0 mm 0.01 in0.3 mm
07:10 PM 20.5°F-6.4°C 11.0°F-11.7°C 66% Calm Calm 6.0 mph9.7 kmh 30.68 in1038.9 mb 0.00 in0.0 mm 0.00 in0.0 mm 0.01 in0.3 mm
07:15 PM 20.5°F-6.4°C 11.3°F-11.5°C 67% 1.0 mph WNW1.6 kmh WNW 3.0 mph4.8 kmh 30.69 in1039.3 mb 0.00 in0.0 mm 0.00 in0.0 mm 0.01 in0.3 mm
07:20 PM 20.4°F-6.4°C 10.5°F-11.9°C 65% 1.0 mph NW1.6 kmh NW 6.0 mph9.7 kmh 30.69 in1039.3 mb 0.00 in0.0 mm 0.00 in0.0 mm 0.01 in0.3 mm
07:25 PM 20.3°F-6.5°C 10.8°F-11.8°C 66% Calm Calm 8.0 mph12.9 kmh 30.70 in1039.6 mb 0.00 in0.0 mm 0.00 in0.0 mm 0.01 in0.3 mm
07:29 PM 20.3°F-6.5°C 10.8°F-11.8°C 66% 3.0 mph NW4.8 kmh NW 9.0 mph14.5 kmh 30.70 in1039.6 mb 0.00 in0.0 mm 0.00 in0.0 mm 0.01 in0.3 mm
07:35 PM 20.2°F-6.6°C 10.7°F-11.8°C 66% 7.0 mph W11.3 kmh W 9.0 mph14.5 kmh 30.71 in1040.0 mb 0.00 in0.0 mm 0.00 in0.0 mm 0.01 in0.3 mm
07:40 PM 20.1°F-6.6°C 10.6°F-11.9°C 66% Calm Calm 7.0 mph11.3 kmh 30.71 in1040.0 mb 0.00 in0.0 mm 0.00 in0.0 mm 0.01 in0.3 mm
07:45 PM 20.1°F-6.6°C 10.6°F-11.9°C 66% 3.0 mph WNW4.8 kmh WNW 4.0 mph6.4 kmh 30.71 in1040.0 mb 0.00 in0.0 mm 0.00 in0.0 mm 0.01 in0.3 mm
07:50 PM 20.1°F-6.6°C 10.2°F-12.1°C 65% 3.0 mph W4.8 kmh W 9.0 mph14.5 kmh 30.71 in1040.0 mb 0.00 in0.0 mm 0.00 in0.0 mm 0.01 in0.3 mm
07:55 PM 20.1°F-6.6°C 10.6°F-11.9°C 66% Calm Calm 9.0 mph14.5 kmh 30.72 in1040.3 mb 0.00 in0.0 mm 0.00 in0.0 mm 0.01 in0.3 mm
07:59 PM 20.0°F-6.7°C 10.5°F-11.9°C 66% 4.0 mph WSW6.4 kmh WSW 7.0 mph11.3 kmh 30.72 in1040.3 mb 0.00 in0.0 mm 0.00 in0.0 mm 0.01 in0.3 mm
08:05 PM 20.0°F-6.7°C 10.5°F-11.9°C 66% 2.0 mph NW3.2 kmh NW 8.0 mph12.9 kmh 30.72 in1040.3 mb 0.00 in0.0 mm 0.00 in0.0 mm 0.01 in0.3 mm
08:10 PM 20.1°F-6.6°C 10.9°F-11.7°C 67% 4.0 mph NW6.4 kmh NW 11.0 mph17.7 kmh 30.72 in1040.3 mb 0.00 in0.0 mm 0.00 in0.0 mm 0.01 in0.3 mm
08:15 PM 20.0°F-6.7°C 10.8°F-11.8°C 67% 5.0 mph NW8.0 kmh NW 8.0 mph12.9 kmh 30.73 in1040.6 mb 0.00 in0.0 mm 0.00 in0.0 mm 0.01 in0.3 mm
08:19 PM 20.0°F-6.7°C 10.8°F-11.8°C 67% 1.0 mph WNW1.6 kmh WNW 5.0 mph8.0 kmh 30.73 in1040.6 mb 0.00 in0.0 mm 0.00 in0.0 mm 0.01 in0.3 mm
08:25 PM 19.9°F-6.7°C 10.7°F-11.8°C 67% 3.0 mph WSW4.8 kmh WSW 8.0 mph12.9 kmh 30.73 in1040.6 mb 0.00 in0.0 mm 0.00 in0.0 mm 0.01 in0.3 mm
08:30 PM 19.9°F-6.7°C 10.7°F-11.8°C 67% 4.0 mph WNW6.4 kmh WNW 8.0 mph12.9 kmh 30.74 in1041.0 mb 0.00 in0.0 mm 0.00 in0.0 mm 0.01 in0.3 mm
08:35 PM 19.9°F-6.7°C 10.7°F-11.8°C 67% 1.0 mph WNW1.6 kmh WNW 7.0 mph11.3 kmh 30.74 in1041.0 mb 0.00 in0.0 mm 0.00 in0.0 mm 0.01 in0.3 mm
08:40 PM 19.9°F-6.7°C 11.1°F-11.6°C 68% 3.0 mph WNW4.8 kmh WNW 7.0 mph11.3 kmh 30.74 in1041.0 mb 0.00 in0.0 mm 0.00 in0.0 mm 0.01 in0.3 mm
08:45 PM 19.9°F-6.7°C 10.7°F-11.8°C 67% 4.0 mph WNW6.4 kmh WNW 7.0 mph11.3 kmh 30.74 in1041.0 mb 0.00 in0.0 mm 0.00 in0.0 mm 0.01 in0.3 mm
08:49 PM 19.8°F-6.8°C 10.6°F-11.9°C 67% 5.0 mph NW8.0 kmh NW 8.0 mph12.9 kmh 30.75 in1041.3 mb 0.00 in0.0 mm 0.00 in0.0 mm 0.01 in0.3 mm
08:55 PM 19.7°F-6.8°C 10.5°F-11.9°C 67% 2.0 mph WNW3.2 kmh WNW 9.0 mph14.5 kmh 30.75 in1041.3 mb 0.00 in0.0 mm 0.00 in0.0 mm 0.01 in0.3 mm
09:00 PM 19.5°F-6.9°C 10.3°F-12.1°C 67% 8.0 mph W12.9 kmh W 8.0 mph12.9 kmh 30.75 in1041.3 mb 0.00 in0.0 mm 0.00 in0.0 mm 0.01 in0.3 mm
09:05 PM 19.5°F-6.9°C 10.3°F-12.1°C 67% 1.0 mph W1.6 kmh W 9.0 mph14.5 kmh 30.76 in1041.7 mb 0.00 in0.0 mm 0.00 in0.0 mm 0.01 in0.3 mm
09:10 PM 19.4°F-7.0°C 10.3°F-12.1°C 67% 5.0 mph WSW8.0 kmh WSW 7.0 mph11.3 kmh 30.76 in1041.7 mb 0.00 in0.0 mm 0.00 in0.0 mm 0.01 in0.3 mm
09:15 PM 19.3°F-7.1°C 10.5°F-11.9°C 68% 2.0 mph W3.2 kmh W 8.0 mph12.9 kmh 30.76 in1041.7 mb 0.00 in0.0 mm 0.00 in0.0 mm 0.01 in0.3 mm
09:20 PM 19.3°F-7.1°C 10.5°F-11.9°C 68% 3.0 mph WNW4.8 kmh WNW 5.0 mph8.0 kmh 30.76 in1041.7 mb 0.00 in0.0 mm 0.00 in0.0 mm 0.01 in0.3 mm
09:25 PM 19.2°F-7.1°C 10.4°F-12.0°C 68% 1.0 mph WNW1.6 kmh WNW 2.0 mph3.2 kmh 30.76 in1041.7 mb 0.00 in0.0 mm 0.00 in0.0 mm 0.01 in0.3 mm
09:30 PM 19.1°F-7.2°C 10.3°F-12.1°C 68% 1.0 mph WNW1.6 kmh WNW 7.0 mph11.3 kmh 30.77 in1042.0 mb 0.00 in0.0 mm 0.00 in0.0 mm 0.01 in0.3 mm
09:35 PM 19.0°F-7.2°C 10.5°F-11.9°C 69% 5.0 mph WSW8.0 kmh WSW 5.0 mph8.0 kmh 30.77 in1042.0 mb 0.00 in0.0 mm 0.00 in0.0 mm 0.01 in0.3 mm
09:40 PM 18.9°F-7.3°C 10.4°F-12.0°C 69% 5.0 mph WNW8.0 kmh WNW 5.0 mph8.0 kmh 30.77 in1042.0 mb 0.00 in0.0 mm 0.00 in0.0 mm 0.01 in0.3 mm
09:45 PM 18.8°F-7.3°C 10.3°F-12.1°C 69% 3.0 mph NW4.8 kmh NW 8.0 mph12.9 kmh 30.78 in1042.3 mb 0.00 in0.0 mm 0.00 in0.0 mm 0.01 in0.3 mm
09:49 PM 18.8°F-7.3°C 10.3°F-12.1°C 69% 2.0 mph WNW3.2 kmh WNW 7.0 mph11.3 kmh 30.78 in1042.3 mb 0.00 in0.0 mm 0.00 in0.0 mm 0.01 in0.3 mm
09:55 PM 18.7°F-7.4°C 10.2°F-12.1°C 69% 3.0 mph NW4.8 kmh NW 5.0 mph8.0 kmh 30.78 in1042.3 mb 0.00 in0.0 mm 0.00 in0.0 mm 0.01 in0.3 mm
09:59 PM 18.6°F-7.4°C 10.1°F-12.2°C 69% 2.0 mph NW3.2 kmh NW 6.0 mph9.7 kmh 30.79 in1042.7 mb 0.00 in0.0 mm 0.00 in0.0 mm 0.01 in0.3 mm
10:04 PM 18.6°F-7.4°C 10.5°F-11.9°C 70% 5.0 mph NW8.0 kmh NW 5.0 mph8.0 kmh 30.79 in1042.7 mb 0.00 in0.0 mm 0.00 in0.0 mm 0.01 in0.3 mm
10:09 PM 18.5°F-7.5°C 10.4°F-12.0°C 70% 2.0 mph N3.2 kmh N 7.0 mph11.3 kmh 30.79 in1042.7 mb 0.00 in0.0 mm 0.00 in0.0 mm 0.01 in0.3 mm
10:15 PM 18.4°F-7.6°C 10.3°F-12.1°C 70% 4.0 mph W6.4 kmh W 5.0 mph8.0 kmh 30.79 in1042.7 mb 0.00 in0.0 mm 0.00 in0.0 mm 0.01 in0.3 mm
10:20 PM 18.4°F-7.6°C 10.3°F-12.1°C 70% 1.0 mph WNW1.6 kmh WNW 4.0 mph6.4 kmh 30.80 in1043.0 mb 0.00 in0.0 mm 0.00 in0.0 mm 0.01 in0.3 mm
10:25 PM 18.3°F-7.6°C 10.2°F-12.1°C 70% 1.0 mph WNW1.6 kmh WNW 3.0 mph4.8 kmh 30.80 in1043.0 mb 0.00 in0.0 mm 0.00 in0.0 mm 0.01 in0.3 mm
10:30 PM 18.2°F-7.7°C 10.4°F-12.0°C 71% 3.0 mph NW4.8 kmh NW 5.0 mph8.0 kmh 30.80 in1043.0 mb 0.00 in0.0 mm 0.00 in0.0 mm 0.01 in0.3 mm
10:35 PM 18.1°F-7.7°C 10.3°F-12.1°C 71% 3.0 mph NW4.8 kmh NW 8.0 mph12.9 kmh 30.80 in1043.0 mb 0.00 in0.0 mm 0.00 in0.0 mm 0.01 in0.3 mm
10:39 PM 18.1°F-7.7°C 10.3°F-12.1°C 71% Calm Calm 4.0 mph6.4 kmh 30.80 in1043.0 mb 0.00 in0.0 mm 0.00 in0.0 mm 0.01 in0.3 mm
10:44 PM 18.0°F-7.8°C 10.2°F-12.1°C 71% 3.0 mph NW4.8 kmh NW 8.0 mph12.9 kmh 30.81 in1043.3 mb 0.00 in0.0 mm 0.00 in0.0 mm 0.01 in0.3 mm
10:49 PM 18.0°F-7.8°C 10.2°F-12.1°C 71% 3.0 mph W4.8 kmh W 6.0 mph9.7 kmh 30.81 in1043.3 mb 0.00 in0.0 mm 0.00 in0.0 mm 0.01 in0.3 mm
10:55 PM 17.9°F-7.8°C 10.1°F-12.2°C 71% 2.0 mph WSW3.2 kmh WSW 9.0 mph14.5 kmh 30.81 in1043.3 mb 0.00 in0.0 mm 0.00 in0.0 mm 0.01 in0.3 mm
11:00 PM 17.9°F-7.8°C 9.8°F-12.3°C 70% 2.0 mph NW3.2 kmh NW 5.0 mph8.0 kmh 30.81 in1043.3 mb 0.00 in0.0 mm 0.00 in0.0 mm 0.01 in0.3 mm
11:04 PM 17.8°F-7.9°C 10.0°F-12.2°C 71% 3.0 mph W4.8 kmh W 9.0 mph14.5 kmh 30.81 in1043.3 mb 0.00 in0.0 mm 0.00 in0.0 mm 0.01 in0.3 mm
11:09 PM 17.8°F-7.9°C 10.0°F-12.2°C 71% 2.0 mph W3.2 kmh W 4.0 mph6.4 kmh 30.81 in1043.3 mb 0.00 in0.0 mm 0.00 in0.0 mm 0.01 in0.3 mm
11:15 PM 17.7°F-7.9°C 9.9°F-12.3°C 71% 3.0 mph W4.8 kmh W 3.0 mph4.8 kmh 30.81 in1043.3 mb 0.00 in0.0 mm 0.00 in0.0 mm 0.01 in0.3 mm
11:20 PM 17.6°F-8.0°C 9.8°F-12.3°C 71% 4.0 mph NW6.4 kmh NW 5.0 mph8.0 kmh 30.81 in1043.3 mb 0.00 in0.0 mm 0.00 in0.0 mm 0.01 in0.3 mm
11:25 PM 17.6°F-8.0°C 10.1°F-12.2°C 72% 2.0 mph NW3.2 kmh NW 3.0 mph4.8 kmh 30.82 in1043.7 mb 0.00 in0.0 mm 0.00 in0.0 mm 0.01 in0.3 mm
11:30 PM 17.5°F-8.1°C 10.0°F-12.2°C 72% 1.0 mph WNW1.6 kmh WNW 7.0 mph11.3 kmh 30.82 in1043.7 mb 0.00 in0.0 mm 0.00 in0.0 mm 0.01 in0.3 mm
11:35 PM 17.5°F-8.1°C 10.0°F-12.2°C 72% 3.0 mph NW4.8 kmh NW 4.0 mph6.4 kmh 30.82 in1043.7 mb 0.00 in0.0 mm 0.00 in0.0 mm 0.01 in0.3 mm
11:40 PM 17.5°F-8.1°C 10.0°F-12.2°C 72% 1.0 mph NW1.6 kmh NW 7.0 mph11.3 kmh 30.82 in1043.7 mb 0.00 in0.0 mm 0.00 in0.0 mm 0.01 in0.3 mm
11:44 PM 17.4°F-8.1°C 9.9°F-12.3°C 72% 4.0 mph NW6.4 kmh NW 5.0 mph8.0 kmh 30.82 in1043.7 mb 0.00 in0.0 mm 0.00 in0.0 mm 0.01 in0.3 mm
11:49 PM 17.3°F-8.2°C 9.8°F-12.3°C 72% 1.0 mph WNW1.6 kmh WNW 8.0 mph12.9 kmh 30.82 in1043.7 mb 0.00 in0.0 mm 0.00 in0.0 mm 0.01 in0.3 mm
11:55 PM 17.3°F-8.2°C 9.8°F-12.3°C 72% 1.0 mph NW1.6 kmh NW 4.0 mph6.4 kmh 30.83 in1044.0 mb 0.00 in0.0 mm 0.00 in0.0 mm 0.01 in0.3 mm